TimeMDT,TemperatureF,Dew PointF,Humidity,Sea Level PressureIn,VisibilityMPH,Wind Direction,Wind SpeedMPH,Gust SpeedMPH,PrecipitationIn,Events,Conditions,WindDirDegrees,DateUTC
12:53 AM,39.0,26.1,60,29.94,-9999.0,SSE,15.0,-,N/A,,Clear,150,2013-05-06 06:53:00
1:53 AM,36.0,26.1,67,29.94,10.0,South,11.5,-,N/A,,Clear,170,2013-05-06 07:53:00
2:53 AM,32.0,25.0,75,29.95,-9999.0,South,9.2,-,N/A,,Clear,180,2013-05-06 08:53:00
3:53 AM,32.0,25.0,75,29.96,-9999.0,SSE,9.2,-,N/A,,Scattered Clouds,160,2013-05-06 09:53:00
4:53 AM,32.0,25.0,75,29.98,-9999.0,South,8.1,-,N/A,,Clear,170,2013-05-06 10:53:00
5:53 AM,28.9,25.0,85,30.01,-9999.0,SW,5.8,-,N/A,,Clear,230,2013-05-06 11:53:00
6:53 AM,34.0,28.0,79,29.99,-9999.0,Calm,Calm,-,N/A,,Clear,0,2013-05-06 12:53:00
7:53 AM,39.0,30.9,73,29.98,-9999.0,South,4.6,-,N/A,,Clear,180,2013-05-06 13:53:00
8:53 AM,45.0,32.0,60,29.96,-9999.0,South,5.8,-,N/A,,Clear,170,2013-05-06 14:53:00
9:53 AM,48.0,32.0,54,29.94,10.0,SSE,3.5,-,N/A,,Clear,150,2013-05-06 15:53:00
10:53 AM,53.1,32.0,45,29.91,10.0,East,4.6,-,N/A,,Clear,90,2013-05-06 16:53:00
11:53 AM,55.9,30.0,37,29.89,10.0,SSE,3.5,-,N/A,,Clear,160,2013-05-06 17:53:00
12:53 PM,57.0,27.0,32,29.86,10.0,Calm,Calm,-,N/A,,Partly Cloudy,0,2013-05-06 18:53:00
1:53 PM,53.1,30.0,41,29.90,10.0,South,12.7,-,0.00,Rain-Thunderstorm,Light Rain,170,2013-05-06 19:53:00
2:12 PM,51.8,30.2,44,30.06,10.0,WNW,5.8,-,0.00,,Overcast,300,2013-05-06 20:12:00
2:53 PM,53.1,30.9,43,29.90,10.0,North,9.2,-,0.00,,Mostly Cloudy,10,2013-05-06 20:53:00
3:53 PM,55.0,30.9,40,29.88,10.0,NNE,11.5,-,N/A,,Overcast,20,2013-05-06 21:53:00
4:53 PM,57.9,30.9,36,29.85,10.0,NE,10.4,-,N/A,,Scattered Clouds,50,2013-05-06 22:53:00
5:53 PM,57.0,27.0,32,29.87,10.0,SE,10.4,-,N/A,,Mostly Cloudy,140,2013-05-06 23:53:00
6:53 PM,54.0,27.0,35,29.86,10.0,ESE,15.0,-,N/A,,Partly Cloudy,120,2013-05-07 00:53:00
7:53 PM,46.9,28.0,48,29.87,10.0,SE,8.1,-,N/A,,Clear,140,2013-05-07 01:53:00
8:53 PM,46.9,28.9,50,29.84,10.0,SSE,4.6,-,N/A,,Clear,150,2013-05-07 02:53:00
9:53 PM,46.0,30.0,54,29.84,10.0,ESE,6.9,-,N/A,,Clear,120,2013-05-07 03:53:00
10:53 PM,41.0,32.0,70,29.84,10.0,SSE,5.8,-,N/A,,Clear,160,2013-05-07 04:53:00
11:53 PM,39.0,34.0,82,29.82,-9999.0,SSW,10.4,-,N/A,,Clear,200,2013-05-07 05:53:00